Salem, Oklahoma
Current Conditions -  °F | °C
As of 12:35 PM on Thursday 30 Oct 2014 (Local Time) from KOKM Reporting Station
Clear Clear  
Wind Chill: 70°   Ceiling: Unl
Heat Index: 70°   Visibility: 10mi
Dew Point: 49°   Wind: 15mph
Humidity: 47%   Direction: 270°W
Pressure: 30.11"   Gusts: 22mph
Location:  35.4729°N, 95.9709°W
Report Text: KOKM 301735Z AUTO 27013G19KT 10SM CLR 21/09 A3011 RMK AO2 T02110093
Loading
Personal Weather Stations






























Interactive Weather Map
Tropical Storm Tracking
New forecast layout! Learn more

10-Day Weather Forecast

Advertisements
Track Severe Weather on mobile